EDDR/SCN METAR and TAF weather

Enter ICAO airport designator
Station Type Date Time Source
EDDR METAR 2020/02/29 03:20 UTC NOAA

EDDR 290320Z 21010KT 9999 BKN008 06/05 Q1005


Station Type Date Time Source
EDDR Decoded METAR 2020/02/29 03:20 UTC NOAA

Saarbruecken / Ensheim, Germany (EDDR) 49-13N 007-07E 320M
Feb 28, 2020 - 10:20 PM EST / 2020.02.29 0320 UTC
Wind: from the SSW (210 degrees) at 12 MPH (10 KT):0
Visibility: greater than 7 mile(s):0
Sky conditions: mostly cloudy
Temperature: 42 F (6 C)
Dew Point: 41 F (5 C)
Relative Humidity: 93%
Pressure (altimeter): 29.68 in. Hg (1005 hPa)
ob: EDDR 290320Z 21010KT 9999 BKN008 06/05 Q1005
cycle: 3

Station Type Date Time Source
EDDR TAF 2020/02/28 18:27 UTC NOAA

TAF EDDR 281700Z 2818/2918 19010KT 9999 BKN030
TEMPO 2820/2906 RA BKN014
BECMG 2908/2910 20015G25KT
TEMPO 2912/2918 21020G35KT SHRA BKN020CB PROB40
TEMPO 2914/2918 23025G40KT 3000 TSGS BKN008 BKN012CB

Example: see airport list